Latest Coastal Weather Observations for Adelaide Airport

IDS60701

Issued at 11:31 pm CST Tuesday 1 September 2015 (issued every 10 minutes, with the page automatically refreshed every 10 minutes)

About coastal observations | Map of coastal stations | Coastal observations for SA | Marine services | Other Formats
Station Details ID: 023034 Name: ADELAIDE AIRPORT Lat: -34.95 Lon: 138.52 Height: 2.0 m
Data from the previous 72 hours. | See also: Recent months at Adelaide Airport
Date/Time
CST
Temp

°C
Wind Pressure Rain
since 9am
mm
Weather Cloud Vis
km
Sea
Height
m
Swell
Dir
 
Speed
knots
Gust
knots
hPa Trend Height
m
Period
s
Dir
01/11:23pm 12.7 NNE 15 24 1008.1 - 1.6 Rain Mostly cloudy 6 - - - -
01/11:00pm 13.3 NNE 9 14 1007.8 - 1.0 Rain Partly cloudy 9 - - - -
01/10:30pm 16.1 NNE 18 28 1007.8 - 0.6 - Partly cloudy 6 - - - -
01/10:26pm 16.2 NNE 18 28 1007.8 - 0.6 Showers Cloudy 10 - - - -
01/10:00pm 16.6 NNE 14 19 1007.4 - 0.6 - Cloudy 10 - - - -
01/09:30pm 16.7 NNE 15 20 1007.4 - - - Cloudy 10 - - - -
01/09:00pm 16.7 NNE 15 19 1007.3 F 0.6 Fine Mostly cloudy 40 - - - -
01/08:30pm 16.8 NE 14 18 1007.1 - - - Cloudy 10 - - - -
01/08:00pm 16.3 NE 10 12 1007.0 - - - Partly cloudy 10 - - - -
01/07:30pm 16.6 NNE 9 14 1007.2 - 0.6 - Partly cloudy 10 - - - -
01/07:00pm 16.6 NNE 9 13 1007.1 - 0.6 - Cloudy 10 - - - -
01/06:30pm 17.3 NE 10 13 1006.9 - - - Partly cloudy 10 - - - -
01/06:00pm 17.4 NE 12 16 1007.1 F 0.6 Distant precip. Mostly cloudy 40 - - - -
01/05:30pm 17.2 NE 9 12 1007.5 - 0.6 - Cloudy 10 - - - -
01/05:00pm 17.1 NNE 10 14 1007.9 - 0.6 Rain Cloudy 10 - - - -
01/04:30pm 17.4 N 11 16 1008.3 - 0.6 - Partly cloudy 10 - - - -
01/04:00pm 17.3 N 15 21 1008.5 - 0.6 Rain Cloudy 10 - - - -
01/03:30pm 18.5 N 15 18 1008.8 - 0.6 - Partly cloudy 10 - - - -
01/03:00pm 18.7 N 12 17 1009.1 F 0.6 Recent precip. Cloudy 40 - - - -
01/02:30pm 18.5 N 15 18 1009.5 - 0.6 - Cloudy 10 - - - -
01/02:00pm 17.3 N 14 19 1009.9 - 0.6 Showers - 10 - - - -
01/01:30pm 19.5 NNE 12 16 1010.0 - 0.6 - Cloudy 10 - - - -
01/01:00pm 20.3 N 13 18 1010.0 - 0.6 - Cloudy 10 - - - -
01/12:30pm 20.0 N 12 16 1010.6 - 0.6 - - 10 - - - -
01/12:00pm 19.4 NNE 13 17 1011.1 F 0.6 Fine Mostly cloudy 40 - - - -
01/11:30am 19.4 NNE 13 17 1011.7 - 0.6 - - 10 - - - -
01/11:00am 17.2 NNE 9 10 1012.1 - 0.0 - Partly cloudy 10 - - - -
01/10:30am 17.1 NNE 9 12 1012.6 - 0.0 - Cloudy 10 - - - -
01/10:00am 16.4 NNE 12 16 1012.9 - 0.0 Showers Cloudy 10 - - - -
01/09:30am 17.4 NNE 12 17 1013.1 - 0.0 - Cloudy 10 - - - -
01/09:00am 16.8 NE 9 13 1013.2 F 0.0 Fine Mostly cloudy 40 - - - -
01/08:30am 15.6 NE 8 10 1013.2 - 0.0 - Partly cloudy 10 - - - -
01/08:00am 13.9 ENE 7 8 1013.2 - 0.0 - Partly cloudy 10 - - - -
01/07:30am 13.2 NE 7 9 1013.4 - 0.0 - Cloudy 10 - - - -
01/07:00am 12.6 NE 7 8 1013.4 - 0.0 - Partly cloudy 10 - - - -
01/06:30am 12.7 NE 5 7 1013.1 - 0.0 - Partly cloudy 10 - - - -
01/06:00am 12.1 ENE 7 8 1012.6 F 0.0 Fine Mostly cloudy 40 - - - -
01/05:30am 12.0 NE 7 8 1012.8 - 0.0 - Partly cloudy 10 - - - -
01/05:00am 12.6 NE 8 9 1012.7 - 0.0 - Partly cloudy 10 - - - -
01/04:30am 13.2 NE 8 9 1012.9 - 0.0 - Partly cloudy 10 - - - -
01/04:00am 12.1 NE 8 9 1013.0 - 0.0 - - 10 - - - -
01/03:30am 12.8 NNE 8 11 1013.3 - 0.0 - Cloudy 10 - - - -
01/03:00am 13.1 NE 10 13 1013.4 F 0.0 Fine Mostly cloudy 35 - - - -
01/02:30am 12.3 NE 9 10 1014.1 - 0.0 - Partly cloudy 10 - - - -
01/02:00am 12.4 NE 8 10 1014.5 - 0.0 - Partly cloudy 10 - - - -
01/01:30am 12.8 NE 9 10 1014.6 - 0.0 - - 10 - - - -
01/01:00am 13.5 NE 10 11 1014.6 - 0.0 - - 10 - - - -
01/12:30am 13.9 NE 8 10 1015.0 - 0.0 - - 10 - - - -
01/12:00am 13.1 NE 9 10 1015.3 F 0.0 Fine Mostly cloudy 35 - - - -
 
Date/Time
CST
Temp

°C
Wind Pressure Rain
since 9am
mm
Weather Cloud Vis
km
Sea
Height
m
Swell
Dir
 
Speed
knots
Gust
knots
hPa Trend Height
m
Period
s
Dir
31/11:30pm 13.3 NE 7 8 1015.5 - 0.0 - - 10 - - - -
31/11:00pm 11.7 NE 7 9 1015.8 - 0.0 - - 10 - - - -
31/10:30pm 11.9 NE 8 9 1016.2 - 0.0 - - 10 - - - -
31/10:00pm 12.4 NE 6 7 1016.4 - 0.0 - - 10 - - - -
31/09:30pm 10.6 ENE 7 8 1016.6 - 0.0 - - 10 - - - -
31/09:00pm 10.8 E 8 9 1016.8 F 0.0 Fine Clear 35 - - - -
31/08:30pm 11.9 E 5 7 1017.0 - 0.0 - - 10 - - - -
31/08:00pm 11.9 ESE 4 5 1017.2 - 0.0 - - 10 - - - -
31/07:30pm 12.2 SE 5 5 1017.1 - 0.0 - - 10 - - - -
31/07:00pm 13.2 S 4 5 1016.9 - 0.0 - - 10 - - - -
31/06:30pm 13.2 ESE 5 6 1016.4 - 0.0 - - 10 - - - -
31/06:00pm 15.7 ESE 2 4 1016.4 F 0.0 Fine Mostly clear 40 - - - -
31/05:30pm 16.8 SW 3 4 1016.6 - 0.0 - - 10 - - - -
31/05:00pm 18.3 WNW 3 4 1016.8 - 0.0 - - 10 - - - -
31/04:30pm 18.2 W 6 8 1017.2 - 0.0 - - 10 - - - -
31/04:00pm 17.9 W 6 7 1017.3 - 0.0 - - 10 - - - -
31/03:30pm 17.8 W 8 9 1017.5 - 0.0 - - 10 - - - -
31/03:00pm 18.0 W 10 12 1017.7 F 0.0 Fine Mostly clear 40 - - - -
31/02:30pm 18.1 W 7 9 1018.0 - 0.0 - - 10 - - - -
31/02:00pm 17.5 WNW 9 12 1018.4 - 0.0 - Mostly clear 10 - - - -
31/01:30pm 18.2 WNW 7 11 1018.6 - 0.0 - Mostly clear 10 - - - -
31/01:00pm 17.8 WNW 9 12 1019.1 - 0.0 - Mostly clear 10 - - - -
31/12:30pm 17.4 WNW 8 11 1019.5 - 0.0 - Mostly clear 10 - - - -
31/12:00pm 17.2 WNW 7 11 1019.9 F 0.0 Fine Mostly clear 40 - - - -
31/11:30am 17.7 N 7 10 1020.2 - 0.0 - - 10 - - - -
31/11:00am 17.0 NNW 7 10 1020.6 - 0.0 - - 10 - - - -
31/10:30am 16.1 N 7 10 1020.9 - 0.0 - - 10 - - - -
31/10:00am 15.4 NNW 9 11 1021.0 - 0.0 - - 10 - - - -
31/09:30am 14.9 N 8 11 1021.2 - 0.0 - - 10 - - - -
31/09:00am 14.2 NNE 9 11 1021.1 F 0.0 Fine Clear 30 - - - -
31/08:30am 11.4 CALM 0 4 1021.0 - 0.0 - - 10 - - - -
31/08:00am 8.3 ENE 4 4 1021.1 - 0.0 - - 10 - - - -
31/07:30am 5.7 CALM 0 0 1021.1 - 0.0 - - 10 - - - -
31/07:00am 4.2 SE 3 4 1020.9 - 0.0 - - 10 - - - -
31/06:30am 3.1 SE 4 5 1020.8 - 0.0 - - 10 - - - -
31/06:00am 3.4 CALM 0 0 1020.8 F 0.0 Fine Clear 40 - - - -
31/05:30am 3.2 SE 1 4 1020.9 - 0.0 - - 10 - - - -
31/05:00am 4.0 CALM 0 0 1020.8 - 0.0 - - 10 - - - -
31/04:30am 4.0 CALM 0 0 1020.8 - 0.0 - - 10 - - - -
31/04:00am 4.7 CALM 0 0 1020.8 - 0.0 - - 10 - - - -
31/03:30am 4.7 E 5 5 1020.9 - 0.0 - - 10 - - - -
31/03:00am 4.8 NE 4 5 1021.1 F 0.0 Fine Clear 40 - - - -
31/02:30am 5.9 NE 5 6 1021.3 - 0.0 - - 10 - - - -
31/02:00am 5.2 NE 1 3 1021.6 - 0.0 - - 10 - - - -
31/01:30am 4.7 ENE 3 4 1021.8 - 0.0 - - 10 - - - -
31/01:00am 5.1 NE 4 4 1022.2 - 0.0 - - 10 - - - -
31/12:30am 6.9 CALM 0 0 1022.4 - 0.0 - - 10 - - - -
31/12:00am 7.1 ESE 4 4 1022.2 F 0.0 Fine Clear 40 - - - -
 
Date/Time
CST
Temp

°C
Wind Pressure Rain
since 9am
mm
Weather Cloud Vis
km
Sea
Height
m
Swell
Dir
 
Speed
knots
Gust
knots
hPa Trend Height
m
Period
s
Dir
30/11:30pm 7.2 E 3 4 1022.1 - 0.0 - - 10 - - - -
30/11:00pm 8.1 E 4 5 1022.3 - 0.0 - - 10 - - - -
30/10:30pm 8.0 ESE 5 5 1022.7 - 0.0 - - 10 - - - -
30/10:00pm 8.5 ESE 4 4 1023.0 - 0.0 - - 10 - - - -
30/09:30pm 9.2 E 3 4 1023.0 - 0.0 - - 10 - - - -
30/09:00pm 9.1 E 5 6 1023.1 F 0.0 Fine Clear 40 - - - -
30/08:30pm 9.2 E 4 5 1023.3 - 0.0 - - 10 - - - -
30/08:00pm 9.9 E 5 5 1023.2 - 0.0 - - 10 - - - -
30/07:30pm 9.6 ESE 4 5 1023.0 - 0.0 - - 10 - - - -
30/07:00pm 10.7 SE 6 7 1023.1 - 0.0 - Mostly clear 10 - - - -
30/06:30pm 12.5 S 4 5 1023.1 - 0.0 - Mostly clear 10 - - - -
30/06:00pm 12.0 SSE 5 6 1022.9 F 0.0 Fine Mostly clear 40 - - - -
30/05:30pm 13.2 S 6 8 1022.8 - 0.0 - Mostly clear 10 - - - -
30/05:00pm 13.4 SSW 7 10 1022.7 - 0.0 - Mostly clear 10 - - - -
30/04:30pm 13.8 SW 9 11 1022.6 - 0.0 - Mostly clear 10 - - - -
30/04:00pm 14.3 SW 9 11 1022.8 - 0.0 - - 10 - - - -
30/03:30pm 14.2 SW 9 10 1022.9 - 0.0 - - 10 - - - -
30/03:00pm 14.3 SW 8 11 1023.0 F 0.0 Fine Mostly clear 40 - - - -
30/02:30pm 14.4 SW 7 10 1023.2 - 0.0 - - 10 - - - -
30/02:00pm 14.6 SSW 9 12 1023.5 - 0.0 - - 10 - - - -
30/01:30pm 14.4 SW 11 16 1024.0 - 0.0 - - 10 - - - -
30/01:00pm 15.0 W 10 12 1024.3 - 0.0 - - 10 - - - -
30/12:30pm 15.3 W 9 13 1024.8 - 0.0 - Mostly clear 10 - - - -
30/12:00pm 14.4 WSW 7 10 1025.1 F 0.0 Fine Mostly clear 40 - - - -
30/11:30am 15.4 NNE 6 10 1025.5 - 0.0 - Mostly clear 10 - - - -
30/11:00am 15.2 NNE 5 10 1025.8 - 0.0 - Mostly clear 10 - - - -
30/10:30am 15.0 NNE 9 13 1025.9 - 0.0 - Mostly clear 10 - - - -
30/10:00am 14.7 ENE 9 11 1026.1 - 0.0 - - 10 - - - -
30/09:30am 13.4 NE 6 8 1026.3 - 0.0 - - 10 - - - -
30/09:00am 12.6 NNE 8 10 1026.5 F 0.0 Fine Mostly clear 30 - - - -
30/08:30am 11.7 NE 6 8 1026.6 - 0.0 - Mostly clear 10 - - - -
30/08:00am 10.1 NNE 6 7 1026.6 - 0.0 - Mostly clear 10 - - - -
30/07:30am 7.5 CALM 0 0 1026.5 - 0.0 - Partly cloudy 10 - - - -
30/07:00am 7.0 ENE 7 8 1026.4 - 0.0 - Mostly clear 10 - - - -
30/06:30am 6.7 ENE 7 8 1026.1 - 0.0 - - 10 - - - -
30/06:00am 6.6 ENE 7 8 1025.8 F 0.0 Fine Mostly clear 30 - - - -
30/05:30am 6.5 ENE 8 9 1025.6 - 0.0 - - 10 - - - -
30/05:00am 6.3 ENE 8 10 1025.6 - 0.0 - - 10 - - - -
30/04:30am 6.5 ENE 8 10 1025.5 - 0.0 - - 10 - - - -
30/04:00am 7.2 E 9 13 1025.4 - 0.0 - Partly cloudy 10 - - - -
30/03:30am 8.7 E 8 10 1025.9 - 0.0 - Cloudy 10 - - - -
30/03:00am 9.1 ENE 6 7 1026.2 F 0.0 Fine Mostly cloudy 30 - - - -
30/02:30am 8.1 E 2 4 1026.4 - 0.0 - Cloudy 10 - - - -
30/02:00am 8.3 CALM 0 0 1026.8 - 0.0 - Cloudy 10 - - - -
30/01:30am 7.8 CALM 0 0 1027.0 - 0.0 - Cloudy 10 - - - -
30/01:00am 6.5 CALM 0 0 1027.3 - 0.0 - Partly cloudy 10 - - - -
30/12:30am 7.5 CALM 0 0 1027.4 - 0.0 - Mostly clear 10 - - - -
30/12:00am 8.2 ENE 2 3 1027.3 F 0.0 Fine Mostly clear 30 - - - -

Other Formats:

Comma delimited format used in spreadsheet applications
http://www.bom.gov.au/fwo/IDS60701/IDS60701.94672.axf

JavaScript Object Notation format (JSON) in row-major order
http://www.bom.gov.au/fwo/IDS60701/IDS60701.94672.json